Time;durP1;ratioP1;P1;durP2;ratioP2;P2;SDS_P1;SDS_P2;PMS_P1;PMS_P2;Temp;Humidity;BMP_temperature;BMP_pressure;BME280_temperature;BME280_humidity;BME280_pressure;Samples;Min_cycle;Max_cycle;Signal;HPM_P1;HPM_P2
2022/08/15 00:00:20;;;;;;;0.20;0.20;;;;;;;27.29;53.71;100462.38;1974825;30;20051;-62
2022/08/15 00:01:30;;;;;;;0.20;0.20;;;;;;;27.26;54.18;100455.00;1964466;30;20084;-64
2022/08/15 00:02:36;;;;;;;0.20;0.20;;;;;;;27.24;54.04;100446.34;1964325;30;20068;-63
2022/08/15 00:04:00;;;;;;;0.20;0.20;;;;;;;27.23;53.91;100450.34;1971756;30;20058;-64
2022/08/15 00:05:06;;;;;;;0.20;0.20;;;;;;;27.25;54.26;100447.13;1976517;30;20108;-63
2022/08/15 00:06:13;;;;;;;0.10;0.10;;;;;;;27.27;53.74;100453.78;1977883;29;20135;-64
2022/08/15 00:07:36;;;;;;;0.10;0.10;;;;;;;27.22;53.93;100448.81;1971746;30;20577;-64
2022/08/15 00:08:53;;;;;;;0.10;0.10;;;;;;;27.21;53.96;100447.25;1971743;30;20094;-64
2022/08/15 00:09:56;;;;;;;0.10;0.10;;;;;;;27.20;54.48;100444.97;1975502;30;20613;-64
2022/08/15 00:11:03;;;;;;;0.20;0.20;;;;;;;27.18;54.12;100448.19;1974380;30;20532;-65
2022/08/15 00:12:22;;;;;;;0.20;0.20;;;;;;;27.10;54.38;100451.75;1971987;30;20055;-64
2022/08/15 00:13:38;;;;;;;0.20;0.20;;;;;;;27.10;54.39;100449.72;1974082;30;20060;-65
2022/08/15 00:14:45;;;;;;;0.20;0.20;;;;;;;27.06;54.28;100446.34;1972670;29;20081;-63
2022/08/15 00:15:49;;;;;;;0.15;0.15;;;;;;;27.06;54.19;100451.91;1971394;30;20519;-64
2022/08/15 00:16:54;;;;;;;0.20;0.20;;;;;;;27.08;54.10;100455.00;1963730;30;20128;-65
2022/08/15 00:17:56;;;;;;;0.20;0.20;;;;;;;26.99;54.41;100443.88;1968708;30;21008;-64
2022/08/15 00:18:59;;;;;;;0.13;0.13;;;;;;;27.03;54.07;100444.53;1974881;30;20055;-64
2022/08/15 00:20:03;;;;;;;0.20;0.20;;;;;;;27.00;53.99;100447.44;1976017;29;20092;-64
2022/08/15 00:21:05;;;;;;;0.17;0.17;;;;;;;26.94;53.94;100438.19;1973568;30;20058;-63
2022/08/15 00:22:15;;;;;;;0.20;0.20;;;;;;;26.94;53.67;100441.72;1971534;30;20059;-63
2022/08/15 00:23:24;;;;;;;0.20;0.20;;;;;;;26.91;53.99;100447.44;1972205;30;20134;-64
2022/08/15 00:24:30;;;;;;;0.20;0.20;;;;;;;26.91;54.22;100450.97;1971819;29;20150;-64
2022/08/15 00:25:35;;;;;;;0.20;0.20;;;;;;;26.85;54.02;100440.94;1977971;29;20180;-64
2022/08/15 00:26:38;;;;;;;0.20;0.20;;;;;;;26.85;54.10;100444.50;1976004;29;20083;-63
2022/08/15 00:27:57;;;;;;;0.22;0.22;;;;;;;26.77;54.42;100437.72;1971885;30;20068;-64
2022/08/15 00:29:03;;;;;;;0.30;0.30;;;;;;;26.78;54.49;100430.19;1969064;30;20138;-64
2022/08/15 00:30:08;;;;;;;0.20;0.20;;;;;;;26.78;54.10;100432.97;1965631;30;20087;-64
2022/08/15 00:31:26;;;;;;;0.20;0.20;;;;;;;26.71;54.37;100431.25;1979108;30;20247;-63
2022/08/15 00:32:53;;;;;;;0.20;0.20;;;;;;;26.69;54.02;100428.16;1973226;29;20075;-63
2022/08/15 00:34:18;;;;;;;0.20;0.20;;;;;;;26.70;54.26;100429.72;1972594;30;20560;-64
2022/08/15 00:35:41;;;;;;;0.20;0.20;;;;;;;26.67;54.74;100425.06;1971368;30;20060;-64
2022/08/15 00:36:58;;;;;;;0.20;0.20;;;;;;;26.64;54.60;100420.47;1971406;30;20063;-63
2022/08/15 00:38:00;;;;;;;0.20;0.20;;;;;;;26.67;54.34;100422.31;1976903;29;20178;-64
2022/08/15 00:39:17;;;;;;;0.20;0.20;;;;;;;26.66;54.52;100423.56;1973860;29;20515;-64
2022/08/15 00:40:21;;;;;;;0.20;0.20;;;;;;;26.61;54.74;100418.59;1973301;30;20094;-64
2022/08/15 00:41:42;;;;;;;0.20;0.20;;;;;;;26.61;54.45;100417.84;1976743;29;20051;-64
2022/08/15 00:42:44;;;;;;;0.20;0.20;;;;;;;26.56;54.51;100413.66;1970124;30;20127;-64
2022/08/15 00:43:58;;;;;;;0.20;0.20;;;;;;;26.59;54.65;100418.28;1970705;30;20102;-63
2022/08/15 00:45:02;;;;;;;0.20;0.20;;;;;;;26.51;54.22;100417.06;1978292;30;20559;-63
2022/08/15 00:46:15;;;;;;;0.20;0.20;;;;;;;26.51;54.73;100413.50;1974893;30;20521;-62
2022/08/15 00:47:24;;;;;;;0.20;0.20;;;;;;;26.47;55.10;100410.88;1966080;30;20092;-63
2022/08/15 00:48:43;;;;;;;0.20;0.20;;;;;;;26.43;54.96;100408.25;1965667;30;20056;-65
2022/08/15 00:49:49;;;;;;;0.20;0.20;;;;;;;26.44;54.75;100409.03;1971801;30;20470;-63
2022/08/15 00:51:08;;;;;;;0.20;0.20;;;;;;;26.42;54.37;100405.94;1971896;30;20135;-62
2022/08/15 00:52:15;;;;;;;0.20;0.20;;;;;;;26.40;54.97;100400.84;1973600;29;20052;-63
2022/08/15 00:53:32;;;;;;;0.20;0.20;;;;;;;26.35;55.23;100411.78;1972033;30;20131;-63
2022/08/15 00:54:41;;;;;;;0.20;0.20;;;;;;;26.38;54.32;100405.31;1974343;30;20097;-63
2022/08/15 00:55:59;;;;;;;0.20;0.20;;;;;;;26.31;54.64;100400.06;1974680;30;20086;-63
2022/08/15 00:57:05;;;;;;;0.17;0.17;;;;;;;26.34;55.06;100401.91;1972753;30;20071;-64
2022/08/15 00:58:11;;;;;;;;;;;;;;;26.07;55.88;100399.06;1972105;29;20056;-64
2022/08/15 00:59:38;;;;;;;0.20;0.20;;;;;;;26.15;55.43;100395.56;1971340;30;20371;-64
2022/08/15 01:00:46;;;;;;;0.20;0.20;;;;;;;26.17;55.04;100392.34;1974910;30;20059;-64
2022/08/15 01:01:52;;;;;;;0.20;0.20;;;;;;;26.16;55.51;100401.88;1970107;30;20048;-62
2022/08/15 01:03:06;;;;;;;0.20;0.20;;;;;;;26.15;55.82;100400.34;1969812;30;20086;-64
2022/08/15 01:04:17;;;;;;;0.28;0.28;;;;;;;26.09;55.41;100402.16;1971564;30;20055;-64
2022/08/15 01:05:20;;;;;;;0.20;0.20;;;;;;;26.09;56.15;100405.72;1971380;29;20090;-63
2022/08/15 01:06:26;;;;;;;0.10;0.10;;;;;;;26.04;55.66;100400.75;1972109;29;20493;-64
2022/08/15 01:07:33;;;;;;;0.20;0.20;;;;;;;25.98;55.90;100405.34;1977611;30;20066;-63
2022/08/15 01:08:42;;;;;;;0.20;0.20;;;;;;;25.96;55.90;100398.69;1974904;30;20075;-63
2022/08/15 01:09:46;;;;;;;0.20;0.20;;;;;;;25.93;56.52;100399.59;1972425;30;20484;-64
2022/08/15 01:10:52;;;;;;;0.20;0.20;;;;;;;25.88;55.86;100397.44;1973564;30;20096;-64
2022/08/15 01:12:13;;;;;;;0.20;0.20;;;;;;;25.85;56.12;100395.59;1967449;30;20135;-63
2022/08/15 01:13:24;;;;;;;0.20;0.20;;;;;;;25.78;56.63;100384.81;1960687;30;20060;-63
2022/08/15 01:14:54;;;;;;;0.20;0.20;;;;;;;25.80;56.65;100398.97;1972346;30;20059;-62
2022/08/15 01:15:59;;;;;;;0.30;0.30;;;;;;;25.76;56.00;100401.09;1973087;30;20113;-63
2022/08/15 01:17:06;;;;;;;0.20;0.20;;;;;;;25.83;55.65;100400.81;1964732;30;20051;-63
2022/08/15 01:18:12;;;;;;;0.20;0.20;;;;;;;25.75;56.57;100399.56;1968561;30;20137;-63
2022/08/15 01:19:39;;;;;;;0.30;0.30;;;;;;;25.76;55.86;100396.34;1974497;29;20074;-63
2022/08/15 01:20:43;;;;;;;0.30;0.30;;;;;;;25.73;56.15;100396.47;1977034;30;20115;-65
2022/08/15 01:22:05;;;;;;;0.20;0.20;;;;;;;25.66;56.31;100400.28;1974388;29;20059;-63
2022/08/15 01:23:15;;;;;;;0.20;0.20;;;;;;;25.65;55.97;100397.97;1964751;30;20072;-63
2022/08/15 01:24:37;;;;;;;0.20;0.20;;;;;;;25.57;56.56;100389.16;1958871;30;20060;-63
2022/08/15 01:26:06;;;;;;;0.20;0.20;;;;;;;25.55;56.71;100399.13;1961999;30;20418;-64
2022/08/15 01:27:33;;;;;;;0.30;0.30;;;;;;;25.53;56.44;100388.53;1968792;30;20059;-63
2022/08/15 01:28:45;;;;;;;0.20;0.20;;;;;;;25.54;57.35;100386.53;1972487;30;20062;-62
2022/08/15 01:29:56;;;;;;;0.20;0.20;;;;;;;25.55;56.75;100390.81;1966987;30;20855;-62
2022/08/15 01:31:02;;;;;;;0.20;0.20;;;;;;;25.58;56.79;100385.16;1967459;30;20064;-63
2022/08/15 01:32:07;;;;;;;0.20;0.20;;;;;;;25.54;56.59;100383.78;1978363;29;20112;-64
2022/08/15 01:33:10;;;;;;;0.20;0.20;;;;;;;25.56;57.08;100381.34;1977341;29;20055;-63
2022/08/15 01:34:16;;;;;;;0.20;0.20;;;;;;;25.56;56.03;100386.84;1975154;30;20062;-63
2022/08/15 01:35:21;;;;;;;0.30;0.30;;;;;;;25.57;56.54;100382.84;1980109;30;20853;-62
2022/08/15 01:36:26;;;;;;;0.25;0.25;;;;;;;25.59;56.17;100383.19;1970629;30;20059;-63
2022/08/15 01:37:37;;;;;;;0.20;0.20;;;;;;;25.56;56.37;100384.09;1971686;30;20532;-63
2022/08/15 01:39:08;;;;;;;0.20;0.20;;;;;;;25.54;56.72;100381.00;1972887;30;20081;-63
2022/08/15 01:40:28;;;;;;;0.20;0.20;;;;;;;25.50;56.88;100380.38;1962953;30;20045;-63
2022/08/15 01:41:54;;;;;;;0.30;0.30;;;;;;;25.51;56.63;100379.94;1972823;30;20108;-64
2022/08/15 01:42:58;;;;;;;0.20;0.20;;;;;;;25.50;57.03;100378.38;1975048;30;20426;-62
2022/08/15 01:44:10;;;;;;;0.20;0.20;;;;;;;25.52;56.35;100375.94;1963916;30;20123;-62
2022/08/15 01:45:34;;;;;;;0.20;0.20;;;;;;;25.48;57.16;100378.03;1972769;30;20109;-64
2022/08/15 01:46:44;;;;;;;0.20;0.20;;;;;;;25.49;56.87;100382.38;1964931;30;20091;-63
2022/08/15 01:47:53;;;;;;;0.20;0.20;;;;;;;25.49;56.73;100381.59;1965593;30;20060;-63
2022/08/15 01:49:08;;;;;;;0.20;0.20;;;;;;;25.48;56.74;100385.59;1969699;30;20167;-63
2022/08/15 01:50:24;;;;;;;0.20;0.20;;;;;;;25.46;56.45;100388.03;1974603;30;20060;-63
2022/08/15 01:51:32;;;;;;;0.20;0.20;;;;;;;25.42;57.32;100381.88;1971352;30;20461;-62
2022/08/15 01:52:40;;;;;;;0.20;0.20;;;;;;;25.46;56.70;100383.28;1971217;30;20140;-63
2022/08/15 01:54:10;;;;;;;0.20;0.20;;;;;;;25.38;57.02;100382.00;1957075;30;20132;-62
2022/08/15 01:55:18;;;;;;;0.20;0.20;;;;;;;25.36;56.98;100391.94;1954038;30;20556;-62
2022/08/15 01:56:28;;;;;;;0.20;0.20;;;;;;;25.34;56.71;100383.34;1964468;30;20055;-63
2022/08/15 01:57:41;;;;;;;0.10;0.10;;;;;;;25.32;56.62;100377.47;1963282;30;20093;-63
2022/08/15 01:58:43;;;;;;;0.20;0.20;;;;;;;25.31;56.83;100382.22;1968598;30;20070;-63
2022/08/15 01:59:55;;;;;;;0.22;0.22;;;;;;;25.32;56.77;100377.47;1973367;30;20317;-63
2022/08/15 02:01:00;;;;;;;0.20;0.20;;;;;;;25.31;57.05;100373.19;1972553;30;20505;-64
2022/08/15 02:02:09;;;;;;;0.30;0.30;;;;;;;25.30;56.78;100379.91;1970154;30;20048;-63
2022/08/15 02:03:34;;;;;;;0.20;0.20;;;;;;;25.22;56.65;100378.63;1973707;30;20116;-64
2022/08/15 02:04:57;;;;;;;0.20;0.20;;;;;;;25.14;57.14;100374.59;1979259;29;20065;-63
2022/08/15 02:06:09;;;;;;;0.20;0.20;;;;;;;25.14;57.26;100383.66;1973833;30;20063;-64
2022/08/15 02:07:19;;;;;;;0.20;0.20;;;;;;;25.13;57.13;100376.59;1961698;30;20089;-63
2022/08/15 02:08:25;;;;;;;0.30;0.30;;;;;;;25.08;57.52;100375.16;1972828;30;20063;-64
2022/08/15 02:09:41;;;;;;;0.22;0.22;;;;;;;25.03;57.52;100373.00;1962572;30;21047;-64
2022/08/15 02:10:59;;;;;;;0.20;0.20;;;;;;;25.08;57.25;100379.16;1959799;30;20128;-64
2022/08/15 02:12:06;;;;;;;0.20;0.20;;;;;;;25.10;57.36;100385.78;1964816;30;20143;-63
2022/08/15 02:13:29;;;;;;;0.20;0.20;;;;;;;25.03;57.44;100375.75;1978738;30;20051;-62
2022/08/15 02:14:36;;;;;;;0.30;0.30;;;;;;;25.02;57.17;100370.69;1977990;29;20055;-64
2022/08/15 02:15:46;;;;;;;0.20;0.20;;;;;;;25.00;57.89;100379.44;1973822;29;20398;-63
2022/08/15 02:16:49;;;;;;;0.20;0.20;;;;;;;25.02;57.43;100376.97;1974403;30;20490;-63
2022/08/15 02:17:53;;;;;;;0.20;0.20;;;;;;;25.07;57.39;100377.63;1972081;30;20071;-63
2022/08/15 02:18:56;;;;;;;0.20;0.20;;;;;;;25.04;57.41;100373.75;1971978;30;20067;-63
2022/08/15 02:20:04;;;;;;;0.28;0.28;;;;;;;25.01;57.85;100369.91;1979376;29;20542;-63
2022/08/15 02:21:26;;;;;;;0.17;0.17;;;;;;;24.98;57.46;100370.03;1977744;29;20051;-65
2022/08/15 02:22:39;;;;;;;0.20;0.20;;;;;;;24.96;57.61;100372.47;1974755;29;20064;-63
2022/08/15 02:23:41;;;;;;;0.10;0.10;;;;;;;24.97;57.48;100369.25;1973327;30;20134;-63
2022/08/15 02:24:45;;;;;;;0.20;0.20;;;;;;;24.97;57.00;100366.47;1973418;29;20674;-63
2022/08/15 02:25:48;;;;;;;0.20;0.20;;;;;;;24.98;57.43;100376.34;1966405;30;20105;-63
2022/08/15 02:26:54;;;;;;;0.20;0.20;;;;;;;24.97;57.38;100372.00;1971071;30;20410;-63
2022/08/15 02:27:57;;;;;;;0.20;0.20;;;;;;;24.96;57.38;100373.25;1972276;30;20056;-63
2022/08/15 02:28:59;;;;;;;0.20;0.20;;;;;;;24.93;57.42;100365.84;1967311;30;20055;-64
2022/08/15 02:30:14;;;;;;;0.27;0.27;;;;;;;24.93;57.57;100373.34;1962467;30;20083;-64
2022/08/15 02:31:23;;;;;;;0.20;0.20;;;;;;;24.91;57.30;100371.06;1964312;30;20561;-64
2022/08/15 02:32:27;;;;;;;0.20;0.20;;;;;;;24.85;57.93;100372.84;1971242;30;20406;-64
2022/08/15 02:33:34;;;;;;;0.20;0.20;;;;;;;24.83;57.39;100371.78;1970558;30;20051;-64
2022/08/15 02:34:39;;;;;;;0.20;0.20;;;;;;;24.81;57.57;100374.19;1971343;30;20060;-63
2022/08/15 02:35:51;;;;;;;0.20;0.20;;;;;;;24.78;57.31;100364.81;1963573;30;20063;-63
2022/08/15 02:36:55;;;;;;;0.20;0.20;;;;;;;24.73;57.38;100365.41;1963570;30;20060;-62
2022/08/15 02:38:04;;;;;;;0.20;0.20;;;;;;;24.74;57.75;100366.16;1968176;30;20056;-62
2022/08/15 02:39:20;;;;;;;0.20;0.20;;;;;;;24.70;57.62;100365.53;1969515;30;20501;-63
2022/08/15 02:40:27;;;;;;;0.20;0.20;;;;;;;24.73;58.01;100365.41;1964393;30;20067;-64
2022/08/15 02:41:50;;;;;;;0.20;0.20;;;;;;;24.71;57.90;100365.06;1969019;30;20055;-63
2022/08/15 02:43:01;;;;;;;0.20;0.20;;;;;;;24.75;57.63;100362.94;1963197;30;20147;-62
2022/08/15 02:44:05;;;;;;;0.20;0.20;;;;;;;24.78;57.94;100364.81;1965174;30;20071;-63
2022/08/15 02:45:10;;;;;;;0.28;0.28;;;;;;;24.81;57.63;100361.16;1977341;30;20055;-64
2022/08/15 02:46:16;;;;;;;0.20;0.20;;;;;;;24.80;57.81;100354.09;1963416;30;20062;-64
2022/08/15 02:47:34;;;;;;;0.20;0.20;;;;;;;24.77;57.71;100356.97;1966997;30;20143;-63
2022/08/15 02:48:36;;;;;;;0.20;0.20;;;;;;;24.79;58.04;100365.59;1975846;30;20119;-64
2022/08/15 02:49:41;;;;;;;0.20;0.20;;;;;;;24.78;57.81;100361.28;1962732;30;20068;-62
2022/08/15 02:50:54;;;;;;;0.20;0.20;;;;;;;24.74;58.26;100355.88;1958491;30;20117;-63
2022/08/15 02:52:00;;;;;;;0.20;0.20;;;;;;;24.78;57.75;100356.50;1971888;30;20090;-64
2022/08/15 02:53:09;;;;;;;0.20;0.20;;;;;;;24.76;57.96;100353.47;1970307;30;20047;-63
2022/08/15 02:54:12;;;;;;;0.20;0.20;;;;;;;24.73;57.47;100362.63;1969615;30;20107;-64
2022/08/15 02:55:36;;;;;;;0.20;0.20;;;;;;;24.72;57.56;100358.31;1966152;30;20497;-64
2022/08/15 02:56:38;;;;;;;0.20;0.20;;;;;;;24.73;58.01;100359.88;1966836;30;20060;-63
2022/08/15 02:57:42;;;;;;;0.20;0.20;;;;;;;24.70;57.76;100355.25;1972163;30;20113;-63
2022/08/15 02:59:07;;;;;;;0.20;0.20;;;;;;;24.66;58.13;100354.59;1966062;30;20051;-62
2022/08/15 03:00:16;;;;;;;0.28;0.28;;;;;;;24.66;58.12;100353.78;1964999;30;20103;-63
2022/08/15 03:01:26;;;;;;;0.20;0.20;;;;;;;24.61;57.72;100352.38;1970453;30;20062;-64
2022/08/15 03:02:49;;;;;;;0.20;0.20;;;;;;;24.58;58.27;100352.47;1974954;30;20324;-64
2022/08/15 03:03:55;;;;;;;0.20;0.20;;;;;;;24.60;58.09;100355.56;1974741;30;20517;-63
2022/08/15 03:05:02;;;;;;;0.20;0.20;;;;;;;24.58;57.70;100346.97;1963989;30;20067;-65
2022/08/15 03:06:09;;;;;;;0.17;0.17;;;;;;;24.57;57.86;100345.44;1963085;30;20055;-63
2022/08/15 03:07:33;;;;;;;0.22;0.22;;;;;;;24.50;58.15;100343.69;1970061;30;20402;-63
2022/08/15 03:08:40;;;;;;;0.25;0.25;;;;;;;24.51;58.23;100345.25;1956548;30;20068;-63
2022/08/15 03:09:48;;;;;;;0.20;0.20;;;;;;;24.48;58.34;100343.34;1964740;30;20075;-63
2022/08/15 03:11:03;;;;;;;0.28;0.28;;;;;;;24.50;58.36;100335.41;1970461;30;20593;-64
2022/08/15 03:12:07;;;;;;;0.20;0.20;;;;;;;24.52;58.37;100340.47;1963030;30;20552;-63
2022/08/15 03:13:30;;;;;;;0.30;0.30;;;;;;;24.49;58.54;100341.38;1966900;30;20558;-63
2022/08/15 03:14:43;;;;;;;0.20;0.20;;;;;;;24.50;58.14;100346.44;1964338;30;20468;-62
2022/08/15 03:15:52;;;;;;;0.20;0.20;;;;;;;24.52;58.69;100344.00;1963806;30;20060;-63
2022/08/15 03:17:02;;;;;;;0.20;0.20;;;;;;;24.51;58.60;100336.97;1960602;30;20060;-64
2022/08/15 03:18:13;;;;;;;0.20;0.20;;;;;;;24.53;58.86;100345.53;1963887;30;20091;-64
2022/08/15 03:19:32;;;;;;;0.20;0.20;;;;;;;24.48;58.66;100340.59;1966865;30;20047;-63
2022/08/15 03:20:36;;;;;;;0.20;0.20;;;;;;;24.53;58.60;100334.50;1966523;30;20511;-62
2022/08/15 03:21:42;;;;;;;0.20;0.20;;;;;;;24.52;58.78;100338.50;1963389;30;20057;-63
2022/08/15 03:22:50;;;;;;;0.30;0.30;;;;;;;24.54;58.56;100341.59;1963491;30;20411;-63
2022/08/15 03:23:58;;;;;;;0.20;0.20;;;;;;;24.49;58.40;100339.38;1969775;30;20144;-62
2022/08/15 03:25:01;;;;;;;0.20;0.20;;;;;;;24.47;58.43;100338.28;1978746;30;20547;-63
2022/08/15 03:26:04;;;;;;;0.20;0.20;;;;;;;24.46;58.22;100340.28;1978102;30;20051;-62
2022/08/15 03:27:27;;;;;;;0.22;0.22;;;;;;;24.43;58.42;100346.69;1969343;30;20071;-62
2022/08/15 03:28:32;;;;;;;0.25;0.25;;;;;;;24.43;58.00;100343.94;1963430;30;20119;-62
2022/08/15 03:29:41;;;;;;;0.20;0.20;;;;;;;24.40;58.11;100341.28;1958232;30;20073;-64
2022/08/15 03:30:53;;;;;;;0.10;0.10;;;;;;;24.35;58.04;100339.88;1961112;30;20056;-63
2022/08/15 03:31:56;;;;;;;0.20;0.20;;;;;;;24.30;58.77;100343.19;1958977;30;20056;-64
2022/08/15 03:32:59;;;;;;;0.20;0.20;;;;;;;24.28;58.71;100340.09;1971042;30;20056;-63
2022/08/15 03:34:07;;;;;;;0.20;0.20;;;;;;;24.24;58.82;100338.69;1967673;30;20366;-63
2022/08/15 03:35:11;;;;;;;0.20;0.20;;;;;;;24.21;59.42;100334.84;1960769;30;20118;-64
2022/08/15 03:36:18;;;;;;;0.30;0.30;;;;;;;24.20;58.79;100338.00;1967831;30;20063;-63
2022/08/15 03:37:24;;;;;;;0.30;0.30;;;;;;;24.10;59.40;100348.19;1964929;30;20059;-63
2022/08/15 03:38:29;;;;;;;0.30;0.30;;;;;;;24.08;59.60;100325.81;1962690;30;20064;-62
2022/08/15 03:39:52;;;;;;;0.20;0.20;;;;;;;24.04;59.94;100333.41;1971676;30;20058;-63
2022/08/15 03:40:54;;;;;;;0.30;0.30;;;;;;;24.03;59.78;100323.63;1973178;30;20129;-64
2022/08/15 03:41:59;;;;;;;0.20;0.20;;;;;;;24.05;59.66;100321.19;1974478;30;20077;-63
2022/08/15 03:43:05;;;;;;;0.20;0.20;;;;;;;24.09;59.40;100324.59;1964053;30;20135;-63
2022/08/15 03:44:15;;;;;;;0.22;0.22;;;;;;;24.04;59.94;100322.38;1965573;30;20052;-64
2022/08/15 03:45:30;;;;;;;0.30;0.30;;;;;;;24.01;59.96;100330.78;1970738;30;20070;-62
2022/08/15 03:46:40;;;;;;;0.30;0.30;;;;;;;24.01;59.81;100325.25;1957572;30;20084;-63
2022/08/15 03:47:42;;;;;;;0.20;0.20;;;;;;;24.00;59.78;100319.00;1967837;30;20063;-63
2022/08/15 03:48:49;;;;;;;0.20;0.20;;;;;;;24.01;59.85;100328.78;1970722;30;20456;-64
2022/08/15 03:49:57;;;;;;;0.30;0.30;;;;;;;23.97;60.05;100325.41;1970585;30;20083;-63
2022/08/15 03:51:23;;;;;;;0.25;0.25;;;;;;;23.99;59.79;100328.47;1967885;30;20075;-63
2022/08/15 03:52:25;;;;;;;0.28;0.28;;;;;;;24.01;59.82;100314.22;1968582;30;20062;-63
2022/08/15 03:53:37;;;;;;;0.20;0.20;;;;;;;24.05;59.83;100320.41;1971967;30;20162;-64
2022/08/15 03:54:47;;;;;;;0.20;0.20;;;;;;;24.05;59.75;100312.13;1964185;30;20140;-63
2022/08/15 03:55:53;;;;;;;0.20;0.20;;;;;;;24.11;59.45;100308.38;1957768;30;20060;-63
2022/08/15 03:56:56;;;;;;;0.20;0.20;;;;;;;24.12;59.41;100314.66;1957211;30;20117;-64
2022/08/15 03:57:59;;;;;;;0.30;0.30;;;;;;;24.15;59.28;100320.03;1971026;30;20067;-63
2022/08/15 03:59:07;;;;;;;0.30;0.30;;;;;;;24.14;59.21;100321.28;1964633;30;20052;-63
2022/08/15 04:00:17;;;;;;;0.20;0.20;;;;;;;24.18;59.18;100312.88;1963221;30;20130;-64
2022/08/15 04:01:24;;;;;;;0.30;0.30;;;;;;;24.13;59.48;100322.50;1968600;30;20064;-63
2022/08/15 04:02:35;;;;;;;0.38;0.38;;;;;;;24.05;59.81;100320.41;1968388;30;20055;-63
2022/08/15 04:03:38;;;;;;;0.40;0.40;;;;;;;24.00;59.70;100324.50;1970690;30;20067;-63
2022/08/15 04:04:41;;;;;;;0.40;0.40;;;;;;;23.99;60.23;100322.19;1971123;30;20524;-63
2022/08/15 04:05:49;;;;;;;0.40;0.40;;;;;;;24.01;59.29;100314.22;1965450;30;20154;-64
2022/08/15 04:06:53;;;;;;;0.40;0.40;;;;;;;23.95;60.08;100327.00;1966617;30;20139;-64
2022/08/15 04:08:09;;;;;;;0.40;0.40;;;;;;;23.91;60.33;100323.59;1964307;30;20184;-63
2022/08/15 04:09:33;;;;;;;0.40;0.40;;;;;;;23.86;60.52;100324.94;1964056;30;20064;-62
2022/08/15 04:10:45;;;;;;;0.50;0.50;;;;;;;23.83;60.09;100328.56;1961972;30;20052;-63
2022/08/15 04:11:49;;;;;;;0.40;0.40;;;;;;;23.77;60.57;100327.56;1970334;30;20497;-62
2022/08/15 04:13:06;;;;;;;0.40;0.40;;;;;;;23.75;60.46;100324.50;1970946;30;20056;-64
2022/08/15 04:14:10;;;;;;;0.40;0.40;;;;;;;23.73;60.61;100326.13;1963622;30;20121;-63
2022/08/15 04:15:34;;;;;;;0.40;0.40;;;;;;;23.64;61.14;100324.06;1966195;30;20055;-62
2022/08/15 04:16:38;;;;;;;0.40;0.40;;;;;;;23.63;61.35;100327.25;1961339;30;20069;-63
2022/08/15 04:18:02;;;;;;;0.35;0.35;;;;;;;23.63;60.96;100327.25;1971545;30;20119;-62
2022/08/15 04:19:25;;;;;;;0.40;0.40;;;;;;;23.60;60.96;100323.38;1963887;30;20260;-63
2022/08/15 04:20:28;;;;;;;0.50;0.50;;;;;;;23.60;61.36;100323.38;1964064;30;20057;-64
2022/08/15 04:21:38;;;;;;;0.40;0.40;;;;;;;23.57;61.41;100329.78;1970097;30;20064;-63
2022/08/15 04:22:54;;;;;;;0.32;0.32;;;;;;;23.57;61.43;100324.28;1963595;30;20202;-63
2022/08/15 04:24:01;;;;;;;0.40;0.40;;;;;;;23.56;61.30;100322.75;1970123;30;20545;-64
2022/08/15 04:25:27;;;;;;;0.40;0.40;;;;;;;23.51;61.74;100315.78;1963975;30;20443;-63
2022/08/15 04:26:50;;;;;;;0.50;0.50;;;;;;;23.44;61.52;100316.00;1970573;30;20142;-64
2022/08/15 04:27:59;;;;;;;0.40;0.40;;;;;;;23.50;61.63;100313.47;1969667;30;20051;-64
2022/08/15 04:29:08;;;;;;;0.50;0.50;;;;;;;23.50;61.50;100316.22;1964891;30;20052;-65
2022/08/15 04:30:11;;;;;;;0.40;0.40;;;;;;;23.56;61.48;100311.72;1963470;30;20498;-63
2022/08/15 04:31:21;;;;;;;0.40;0.40;;;;;;;23.59;61.27;100319.09;1963770;30;20060;-62
2022/08/15 04:32:26;;;;;;;0.47;0.47;;;;;;;23.61;61.35;100319.41;1963387;30;20052;-62
2022/08/15 04:33:38;;;;;;;0.40;0.40;;;;;;;23.63;61.15;100319.00;1964428;30;20059;-62
2022/08/15 04:35:02;;;;;;;0.40;0.40;;;;;;;23.63;61.08;100314.22;1968759;30;20059;-64
2022/08/15 04:36:10;;;;;;;0.45;0.45;;;;;;;23.70;61.05;100322.28;1974535;30;20512;-62
2022/08/15 04:37:22;;;;;;;0.40;0.40;;;;;;;23.71;61.15;100321.06;1970001;30;20566;-62
2022/08/15 04:38:27;;;;;;;0.40;0.40;;;;;;;23.74;60.93;100322.94;1963253;30;20087;-64
2022/08/15 04:39:29;;;;;;;0.40;0.40;;;;;;;23.77;61.00;100322.06;1963572;30;20060;-63
2022/08/15 04:40:41;;;;;;;0.40;0.40;;;;;;;23.81;61.01;100317.22;1964494;30;20067;-63
2022/08/15 04:42:06;;;;;;;0.40;0.40;;;;;;;23.80;60.97;100326.69;1966407;29;20138;-64
2022/08/15 04:43:10;;;;;;;0.40;0.40;;;;;;;23.85;60.80;100331.66;1971063;30;20490;-64
2022/08/15 04:44:13;;;;;;;0.40;0.40;;;;;;;23.88;60.52;100328.00;1967582;30;20505;-63
2022/08/15 04:45:22;;;;;;;;;;;;;;;23.66;61.08;100329.13;1964681;30;20052;-64
2022/08/15 04:46:25;;;;;;;0.50;0.50;;;;;;;23.77;60.86;100322.06;1962992;30;19934;-62
2022/08/15 04:47:29;;;;;;;0.40;0.40;;;;;;;23.81;60.65;100327.47;1966010;30;20060;-62
2022/08/15 04:48:42;;;;;;;0.40;0.40;;;;;;;23.81;60.89;100325.50;1966639;29;20451;-63
2022/08/15 04:49:45;;;;;;;0.40;0.40;;;;;;;23.84;60.73;100321.84;1965578;30;20474;-63
2022/08/15 04:50:52;;;;;;;0.45;0.45;;;;;;;23.87;60.84;100320.94;1969096;30;20051;-63
2022/08/15 04:52:06;;;;;;;0.50;0.50;;;;;;;23.86;60.93;100322.19;1971700;30;20428;-63
2022/08/15 04:53:09;;;;;;;0.40;0.40;;;;;;;23.89;60.91;100318.53;1967049;30;20059;-63
2022/08/15 04:54:12;;;;;;;0.40;0.40;;;;;;;23.92;60.57;100317.63;1966106;30;20078;-65
2022/08/15 04:55:21;;;;;;;0.40;0.40;;;;;;;23.95;60.62;100315.97;1959270;30;20086;-63
2022/08/15 04:56:45;;;;;;;0.40;0.40;;;;;;;23.88;60.72;100316.97;1960555;30;20064;-63
2022/08/15 04:57:56;;;;;;;0.40;0.40;;;;;;;23.96;60.46;100312.78;1958869;30;20151;-63
2022/08/15 04:59:02;;;;;;;0.40;0.40;;;;;;;23.95;60.45;100302.19;1960540;30;20056;-62
2022/08/15 05:00:12;;;;;;;0.40;0.40;;;;;;;23.98;60.44;100313.13;1959274;30;20111;-63
2022/08/15 05:01:36;;;;;;;0.40;0.40;;;;;;;23.95;60.60;100319.50;1961043;30;20083;-62
2022/08/15 05:03:02;;;;;;;0.40;0.40;;;;;;;23.97;60.70;100319.88;1964839;30;20113;-63
2022/08/15 05:04:08;;;;;;;0.40;0.40;;;;;;;24.00;60.67;100313.47;1970586;30;20060;-63
2022/08/15 05:05:27;;;;;;;0.40;0.40;;;;;;;23.96;61.06;100307.25;1967927;30;20056;-64
2022/08/15 05:06:40;;;;;;;0.40;0.40;;;;;;;24.02;60.71;100304.75;1969165;29;20051;-66
2022/08/15 05:07:52;;;;;;;0.40;0.40;;;;;;;24.01;60.47;100303.97;1968374;30;20059;-63
2022/08/15 05:09:03;;;;;;;0.50;0.50;;;;;;;24.02;60.86;100305.53;1971237;30;20063;-63
2022/08/15 05:10:08;;;;;;;0.40;0.40;;;;;;;24.05;60.55;100303.84;1972109;30;20513;-63
2022/08/15 05:11:19;;;;;;;0.40;0.40;;;;;;;24.08;60.70;100306.50;1972086;30;20055;-63
2022/08/15 05:12:28;;;;;;;0.32;0.32;;;;;;;24.07;60.75;100302.19;1966124;30;20145;-63
2022/08/15 05:13:38;;;;;;;0.40;0.40;;;;;;;24.10;60.91;100312.31;1964339;30;20135;-64
2022/08/15 05:14:41;;;;;;;0.40;0.40;;;;;;;24.09;60.39;100305.28;1964498;30;20139;-65
2022/08/15 05:15:57;;;;;;;0.43;0.43;;;;;;;24.12;60.12;100303.63;1961843;30;20715;-63
2022/08/15 05:17:04;;;;;;;0.40;0.40;;;;;;;24.09;60.59;100308.03;1963212;30;20056;-64
2022/08/15 05:18:11;;;;;;;0.30;0.30;;;;;;;24.10;60.32;100309.56;1963980;30;20052;-62
2022/08/15 05:19:19;;;;;;;0.40;0.40;;;;;;;24.15;60.18;100309.00;1963376;30;20108;-64
2022/08/15 05:20:22;;;;;;;0.30;0.30;;;;;;;24.17;59.97;100305.81;1964499;30;20055;-65
2022/08/15 05:21:26;;;;;;;0.40;0.40;;;;;;;24.13;59.64;100297.66;1964633;30;20052;-63
2022/08/15 05:22:57;;;;;;;0.40;0.40;;;;;;;24.04;60.15;100305.84;1975889;30;20112;-63
2022/08/15 05:24:03;;;;;;;0.40;0.40;;;;;;;24.03;60.19;100301.53;1971840;30;20048;-64
2022/08/15 05:25:07;;;;;;;0.40;0.40;;;;;;;24.01;60.20;100300.44;1964206;30;20137;-64
2022/08/15 05:26:12;;;;;;;0.40;0.40;;;;;;;24.02;60.18;100305.53;1964567;30;20064;-64
2022/08/15 05:27:34;;;;;;;0.40;0.40;;;;;;;23.91;60.12;100298.78;1969628;30;20502;-63
2022/08/15 05:28:37;;;;;;;0.40;0.40;;;;;;;23.90;60.15;100308.25;1964058;30;20159;-63